Time;durP1;ratioP1;P1;durP2;ratioP2;P2;SDS_P1;SDS_P2;PMS_P1;PMS_P2;Temp;Humidity;BMP_temperature;BMP_pressure;BME280_temperature;BME280_humidity;BME280_pressure;Samples;Min_cycle;Max_cycle;Signal;HPM_P1;HPM_P2
2023/06/05 00:01:37;;;;;;;4.28;2.70;;;14.60;96.30;;;;;;5046094;28;20021;-42
2023/06/05 00:04:03;;;;;;;2.75;2.22;;;14.60;96.40;;;;;;5044358;28;20032;-43
2023/06/05 00:06:29;;;;;;;3.47;2.35;;;14.50;96.40;;;;;;5040866;28;20027;-42
2023/06/05 00:08:58;;;;;;;2.55;2.28;;;14.50;96.50;;;;;;5029169;28;20033;-42
2023/06/05 00:11:23;;;;;;;2.90;2.00;;;14.40;96.60;;;;;;5044118;28;20039;-43
2023/06/05 00:13:49;;;;;;;4.57;2.78;;;14.40;96.60;;;;;;5044146;28;20041;-43
2023/06/05 00:16:16;;;;;;;3.47;2.30;;;14.40;96.70;;;;;;5045181;28;20017;-43
2023/06/05 00:18:43;;;;;;;3.42;2.78;;;14.40;96.80;;;;;;5045735;28;20029;-42
2023/06/05 00:21:09;;;;;;;4.43;2.70;;;14.40;96.80;;;;;;5044707;28;20029;-43
2023/06/05 00:23:35;;;;;;;3.50;2.30;;;14.30;97.20;;;;;;5044616;28;20029;-44
2023/06/05 00:26:01;;;;;;;4.85;2.55;;;14.30;97.00;;;;;;5044136;28;20041;-43
2023/06/05 00:28:27;;;;;;;3.45;2.80;;;14.20;97.00;;;;;;5044232;28;20025;-44
2023/06/05 00:30:52;;;;;;;3.03;2.60;;;14.20;97.30;;;;;;5044517;28;20090;-43
2023/06/05 00:33:18;;;;;;;3.15;2.70;;;14.10;97.30;;;;;;5043716;28;20571;-42
2023/06/05 00:35:43;;;;;;;2.70;2.15;;;14.10;97.40;;;;;;5044405;28;20040;-43
2023/06/05 00:38:09;;;;;;;3.03;2.28;;;14.20;97.50;;;;;;5041793;28;20029;-42
2023/06/05 00:40:34;;;;;;;4.32;2.80;;;14.10;97.60;;;;;;5044269;28;20029;-42
2023/06/05 00:43:00;;;;;;;3.75;2.88;;;14.10;97.70;;;;;;5043907;28;20541;-44
2023/06/05 00:45:28;;;;;;;4.90;3.20;;;14.10;97.80;;;;;;5044013;28;20117;-42
2023/06/05 00:47:54;;;;;;;4.00;2.80;;;14.10;98.00;;;;;;5045417;28;20033;-42
2023/06/05 00:50:24;;;;;;;5.18;2.90;;;14.10;98.00;;;;;;5043914;28;20017;-43
2023/06/05 00:52:51;;;;;;;4.82;3.08;;;14.00;98.20;;;;;;5044650;28;20103;-42
2023/06/05 00:55:16;;;;;;;4.45;3.20;;;14.00;98.30;;;;;;5044900;28;20114;-40
2023/06/05 00:57:44;;;;;;;3.90;3.05;;;14.00;98.40;;;;;;5043867;28;20131;-43
2023/06/05 01:00:12;;;;;;;3.22;2.92;;;13.90;98.50;;;;;;5043462;28;20029;-41
2023/06/05 01:02:39;;;;;;;3.28;2.25;;;13.90;98.70;;;;;;5042130;28;20488;-43
2023/06/05 01:05:05;;;;;;;4.05;2.88;;;13.90;98.70;;;;;;5045282;28;20111;-42
2023/06/05 01:07:32;;;;;;;5.68;3.15;;;13.90;98.80;;;;;;5044335;28;20025;-43
2023/06/05 01:10:03;;;;;;;4.60;2.92;;;13.80;98.90;;;;;;5044591;28;20149;-43
2023/06/05 01:12:53;;;;;;;4.70;3.25;;;13.70;99.10;;;;;;5044803;28;20473;-42
2023/06/05 01:15:28;;;;;;;4.15;3.03;;;13.60;99.20;;;;;;5025282;28;20148;-43
2023/06/05 01:17:58;;;;;;;4.15;3.15;;;13.60;99.30;;;;;;5041847;28;20427;-43
2023/06/05 01:20:32;;;;;;;3.45;3.15;;;13.60;99.40;;;;;;5043618;28;20033;-43
2023/06/05 01:22:57;;;;;;;3.83;3.15;;;13.60;99.60;;;;;;5045312;28;20024;-44
2023/06/05 01:25:23;;;;;;;4.70;3.05;;;13.50;99.70;;;;;;5031470;28;20026;-43
2023/06/05 01:27:57;;;;;;;4.80;3.80;;;13.60;99.90;;;;;;5038373;28;20075;-42
2023/06/05 01:30:32;;;;;;;4.18;3.15;;;13.60;99.90;;;;;;5044127;28;20380;-43
2023/06/05 01:33:24;;;;;;;4.93;3.38;;;13.60;99.90;;;;;;5044488;28;20025;-44
2023/06/05 01:35:53;;;;;;;5.20;3.38;;;13.50;99.90;;;;;;5044845;28;20040;-43
2023/06/05 01:38:20;;;;;;;6.43;3.78;;;13.50;99.90;;;;;;5043394;28;20027;-43
2023/06/05 01:40:48;;;;;;;3.85;3.30;;;13.50;99.90;;;;;;5044622;28;20039;-42
2023/06/05 01:43:15;;;;;;;3.97;3.25;;;13.40;99.90;;;;;;5043830;28;20059;-42
2023/06/05 01:45:41;;;;;;;5.03;3.60;;;13.30;99.90;;;;;;5043046;28;20713;-44
2023/06/05 01:48:10;;;;;;;3.60;3.30;;;13.30;99.90;;;;;;5038631;28;20103;-43
2023/06/05 01:50:37;;;;;;;4.38;3.95;;;13.20;99.90;;;;;;5043445;28;20139;-42
2023/06/05 01:53:07;;;;;;;5.13;4.15;;;13.20;99.90;;;;;;5043127;28;20060;-43
2023/06/05 01:55:33;;;;;;;3.78;3.28;;;13.20;99.90;;;;;;5043302;28;20044;-42
2023/06/05 01:57:59;;;;;;;4.40;3.83;;;13.10;99.90;;;;;;5042271;28;20040;-42
2023/06/05 02:00:25;;;;;;;4.53;3.80;;;13.10;99.90;;;;;;5042257;28;20674;-43
2023/06/05 02:02:51;;;;;;;6.30;4.72;;;13.00;99.90;;;;;;5043982;28;20118;-44
2023/06/05 02:05:19;;;;;;;4.82;4.13;;;13.00;99.90;;;;;;5044035;28;20021;-43
2023/06/05 02:07:53;;;;;;;5.05;4.28;;;13.00;99.90;;;;;;5042369;28;20055;-42
2023/06/05 02:10:19;;;;;;;5.60;4.45;;;13.00;99.90;;;;;;5034239;28;20021;-43
2023/06/05 02:12:45;;;;;;;7.00;4.38;;;13.00;99.90;;;;;;5043211;28;20025;-42
2023/06/05 02:15:14;;;;;;;4.40;3.97;;;13.00;99.90;;;;;;5043478;28;20401;-43
2023/06/05 02:17:53;;;;;;;5.88;4.25;;;13.00;99.90;;;;;;5042964;28;20385;-44
2023/06/05 02:20:25;;;;;;;5.55;4.03;;;12.90;99.90;;;;;;5041931;28;20052;-43
2023/06/05 02:22:51;;;;;;;3.95;3.55;;;12.90;99.90;;;;;;5037809;28;20034;-44
2023/06/05 02:25:18;;;;;;;5.10;3.78;;;12.90;99.90;;;;;;5041477;28;20147;-43
2023/06/05 02:27:46;;;;;;;5.88;4.22;;;12.80;99.90;;;;;;5042724;28;20090;-43
2023/06/05 02:30:12;;;;;;;6.30;4.95;;;12.80;99.90;;;;;;5043360;28;20112;-43
2023/06/05 02:32:43;;;;;;;5.18;4.40;;;12.80;99.90;;;;;;5042368;28;20041;-42
2023/06/05 02:35:10;;;;;;;4.88;4.40;;;12.80;99.90;;;;;;5042810;28;20052;-42
2023/06/05 02:37:43;;;;;;;5.32;4.72;;;12.80;99.90;;;;;;5042811;28;20467;-42
2023/06/05 02:40:11;;;;;;;5.88;4.57;;;12.70;99.90;;;;;;5041320;28;20029;-43
2023/06/05 02:42:36;;;;;;;5.68;4.47;;;12.60;99.90;;;;;;5039467;28;20028;-42
2023/06/05 02:45:03;;;;;;;5.72;4.53;;;12.60;99.90;;;;;;5043257;28;20023;-43
2023/06/05 02:47:32;;;;;;;5.82;4.70;;;12.50;99.90;;;;;;5042806;28;20017;-43
2023/06/05 02:49:57;;;;;;;5.00;4.43;;;12.50;99.90;;;;;;5042601;28;20033;-43
2023/06/05 02:52:24;;;;;;;6.72;4.40;;;12.40;99.90;;;;;;5042488;28;20048;-43
2023/06/05 02:54:50;;;;;;;6.07;4.40;;;12.40;99.90;;;;;;5040904;28;20044;-43
2023/06/05 02:57:17;;;;;;;6.40;4.75;;;12.30;99.90;;;;;;5042903;28;20079;-43
2023/06/05 02:59:43;;;;;;;7.20;5.28;;;12.30;99.90;;;;;;5042590;28;20033;-43
2023/06/05 03:02:09;;;;;;;5.38;4.78;;;12.30;99.90;;;;;;5042557;28;20026;-43
2023/06/05 03:04:34;;;;;;;5.85;5.22;;;12.30;99.90;;;;;;5042608;28;20056;-42
2023/06/05 03:07:03;;;;;;;6.00;4.70;;;12.30;99.90;;;;;;5043048;28;20162;-43
2023/06/05 03:09:30;;;;;;;6.07;4.72;;;12.30;99.90;;;;;;5041788;28;20025;-41
2023/06/05 03:11:56;;;;;;;4.97;4.47;;;12.30;99.90;;;;;;5042804;28;20040;-43
2023/06/05 03:14:22;;;;;;;6.28;4.88;;;12.30;99.90;;;;;;5046093;28;20033;-42
2023/06/05 03:16:54;;;;;;;6.45;5.57;;;12.30;99.90;;;;;;5045796;28;20090;-43
2023/06/05 03:19:25;;;;;;;6.25;5.07;;;12.30;99.90;;;;;;5039048;28;20099;-42
2023/06/05 03:21:51;;;;;;;5.80;5.25;;;12.20;99.90;;;;;;5042629;28;20031;-43
2023/06/05 03:24:16;;;;;;;7.70;5.15;;;12.20;99.90;;;;;;5045769;28;20025;-43
2023/06/05 03:26:43;;;;;;;6.22;5.60;;;12.20;99.90;;;;;;5045910;28;20063;-42
2023/06/05 03:29:10;;;;;;;6.57;5.25;;;12.20;99.90;;;;;;5046653;28;20437;-43
2023/06/05 03:31:36;;;;;;;6.60;5.53;;;12.10;99.90;;;;;;5042944;28;20110;-42
2023/06/05 03:34:02;;;;;;;5.72;5.20;;;12.10;99.90;;;;;;5046604;28;20072;-43
2023/06/05 03:36:29;;;;;;;6.95;5.93;;;12.10;99.90;;;;;;5046066;28;20024;-43
2023/06/05 03:38:56;;;;;;;7.65;5.47;;;12.00;99.90;;;;;;5039306;28;20037;-43
2023/06/05 03:41:22;;;;;;;6.05;5.25;;;12.00;99.90;;;;;;5032222;28;20028;-43
2023/06/05 03:43:49;;;;;;;6.00;5.00;;;12.00;99.90;;;;;;5043639;28;20388;-43
2023/06/05 03:46:18;;;;;;;8.02;5.60;;;12.00;99.90;;;;;;5045361;28;20026;-44
2023/06/05 03:48:48;;;;;;;6.38;5.07;;;11.90;99.90;;;;;;5045864;28;20032;-44
2023/06/05 03:51:17;;;;;;;6.22;5.20;;;11.90;99.90;;;;;;5044204;28;20037;-44
2023/06/05 03:53:44;;;;;;;6.05;5.45;;;11.90;99.90;;;;;;5045176;28;20045;-43
2023/06/05 03:56:10;;;;;;;7.63;5.07;;;11.90;99.90;;;;;;5045929;28;20033;-43
2023/06/05 03:58:35;;;;;;;8.18;5.75;;;12.00;99.90;;;;;;5044781;28;20033;-42
2023/06/05 04:01:01;;;;;;;9.38;5.90;;;12.00;99.90;;;;;;5046019;28;20358;-43
2023/06/05 04:03:27;;;;;;;8.15;5.57;;;12.00;99.90;;;;;;5034111;28;20032;-44
2023/06/05 04:05:55;;;;;;;6.05;4.90;;;12.00;99.90;;;;;;5046108;28;20025;-42
2023/06/05 04:08:20;;;;;;;6.38;5.20;;;12.00;99.90;;;;;;5045097;28;20492;-42
2023/06/05 04:10:46;;;;;;;6.95;5.40;;;12.00;99.90;;;;;;5044701;28;20029;-43
2023/06/05 04:13:11;;;;;;;6.05;4.88;;;11.90;99.90;;;;;;5043905;28;20439;-42
2023/06/05 04:15:37;;;;;;;7.40;5.82;;;11.90;99.90;;;;;;5042526;28;20049;-43
2023/06/05 04:18:03;;;;;;;8.25;5.10;;;11.90;99.90;;;;;;5045923;28;20029;-43
2023/06/05 04:20:29;;;;;;;6.55;4.70;;;11.90;99.90;;;;;;5044488;28;20389;-43
2023/06/05 04:22:54;;;;;;;6.93;5.60;;;11.90;99.90;;;;;;5046294;28;20036;-43
2023/06/05 04:25:20;;;;;;;7.70;5.38;;;11.90;99.90;;;;;;5045333;28;20037;-42
2023/06/05 04:27:50;;;;;;;6.22;5.18;;;11.80;99.90;;;;;;5044484;28;20555;-43
2023/06/05 04:30:15;;;;;;;7.18;5.40;;;11.80;99.90;;;;;;5034598;28;20682;-43
2023/06/05 04:32:41;;;;;;;7.07;5.80;;;11.90;99.90;;;;;;5044726;28;20029;-42
2023/06/05 04:35:08;;;;;;;6.20;5.03;;;11.90;99.90;;;;;;5044271;28;20707;-43
2023/06/05 04:37:37;;;;;;;5.80;5.13;;;11.90;99.90;;;;;;5042551;28;20033;-44
2023/06/05 04:40:09;;;;;;;5.88;5.25;;;11.90;99.90;;;;;;5044257;28;20025;-43
2023/06/05 04:42:38;;;;;;;6.75;5.93;;;11.90;99.90;;;;;;5042643;28;20075;-42
2023/06/05 04:45:06;;;;;;;8.27;5.40;;;11.90;99.90;;;;;;5044044;28;20051;-42
2023/06/05 04:47:32;;;;;;;8.30;5.95;;;11.90;99.90;;;;;;5043824;28;20033;-42
2023/06/05 04:49:58;;;;;;;7.30;6.03;;;11.90;99.90;;;;;;5044788;28;20025;-44
2023/06/05 04:52:24;;;;;;;6.07;5.03;;;11.90;99.90;;;;;;5044412;28;20044;-43
2023/06/05 04:54:50;;;;;;;7.65;5.88;;;11.90;99.90;;;;;;5044477;28;20052;-44
2023/06/05 04:57:16;;;;;;;7.68;5.80;;;11.90;99.90;;;;;;5044217;28;20032;-42
2023/06/05 04:59:43;;;;;;;11.20;7.75;;;11.90;99.90;;;;;;5044263;28;20037;-43
2023/06/05 05:02:09;;;;;;;10.50;7.03;;;12.00;99.90;;;;;;5043357;28;20055;-43
2023/06/05 05:04:34;;;;;;;7.95;6.22;;;11.90;99.90;;;;;;5043932;28;20064;-44
2023/06/05 05:07:00;;;;;;;7.40;5.72;;;11.90;99.90;;;;;;5045137;28;20062;-43
2023/06/05 05:09:32;;;;;;;7.40;5.32;;;11.90;99.90;;;;;;5044148;28;20032;-43
2023/06/05 05:11:58;;;;;;;8.38;5.28;;;11.90;99.90;;;;;;5045697;28;20116;-43
2023/06/05 05:14:28;;;;;;;8.40;6.13;;;12.00;99.90;;;;;;5042121;28;20143;-43
2023/06/05 05:16:55;;;;;;;8.15;6.20;;;12.00;99.90;;;;;;5043455;28;20555;-45
2023/06/05 05:19:22;;;;;;;7.50;6.35;;;12.10;99.90;;;;;;5043952;28;20514;-43
2023/06/05 05:21:47;;;;;;;6.75;5.95;;;12.10;99.90;;;;;;5043990;28;20029;-44
2023/06/05 05:24:14;;;;;;;9.60;6.53;;;12.10;99.90;;;;;;5037316;28;20044;-43
2023/06/05 05:26:39;;;;;;;8.15;5.47;;;12.10;99.90;;;;;;5041138;28;20179;-43
2023/06/05 05:29:26;;;;;;;6.78;5.70;;;12.20;99.90;;;;;;5039058;28;20080;-43
2023/06/05 05:31:52;;;;;;;7.97;6.25;;;12.20;99.90;;;;;;5042109;28;20573;-44
2023/06/05 05:34:18;;;;;;;8.10;5.82;;;12.20;99.90;;;;;;5047062;28;20479;-43
2023/06/05 05:36:46;;;;;;;8.23;6.18;;;12.20;99.90;;;;;;5042194;28;20029;-43
2023/06/05 05:39:12;;;;;;;6.45;5.00;;;12.30;99.90;;;;;;5044217;28;20064;-43
2023/06/05 05:41:38;;;;;;;5.85;4.78;;;12.30;99.90;;;;;;5042460;28;20075;-42
2023/06/05 05:44:03;;;;;;;8.38;5.38;;;12.30;99.90;;;;;;5042052;28;20031;-43
2023/06/05 05:46:29;;;;;;;6.03;4.47;;;12.40;99.90;;;;;;5041758;28;20056;-44
2023/06/05 05:48:54;;;;;;;7.20;5.10;;;12.50;99.90;;;;;;5043542;28;20362;-43
2023/06/05 05:51:21;;;;;;;7.22;5.53;;;12.50;99.90;;;;;;5041787;28;20522;-44
2023/06/05 05:53:46;;;;;;;5.55;4.75;;;12.60;99.90;;;;;;5041802;28;20170;-42
2023/06/05 05:56:13;;;;;;;7.57;5.95;;;12.60;99.90;;;;;;5043096;28;20393;-43
2023/06/05 05:58:39;;;;;;;6.72;4.57;;;12.60;99.90;;;;;;5041894;28;20031;-42
2023/06/05 06:01:04;;;;;;;4.78;4.05;;;12.70;99.90;;;;;;5041637;28;20820;-44
2023/06/05 06:03:32;;;;;;;8.10;4.72;;;12.70;99.90;;;;;;5039294;28;20228;-43
2023/06/05 06:05:58;;;;;;;5.30;4.47;;;12.80;99.90;;;;;;5042036;28;20064;-43
2023/06/05 06:08:24;;;;;;;9.77;6.30;;;12.90;99.90;;;;;;5042690;28;20053;-41
2023/06/05 06:10:50;;;;;;;5.57;4.20;;;12.90;99.90;;;;;;5042518;28;20013;-43
2023/06/05 06:13:15;;;;;;;6.57;5.10;;;13.00;99.90;;;;;;5042407;28;20044;-43
2023/06/05 06:15:41;;;;;;;6.13;4.75;;;13.00;99.90;;;;;;5041430;28;20580;-42
2023/06/05 06:18:07;;;;;;;5.90;4.97;;;13.00;99.90;;;;;;5042939;28;20377;-42
2023/06/05 06:20:35;;;;;;;5.60;4.60;;;13.10;99.90;;;;;;5041135;28;20105;-44
2023/06/05 06:23:03;;;;;;;7.20;5.15;;;13.20;99.90;;;;;;5043309;28;20063;-44
2023/06/05 06:25:31;;;;;;;6.05;5.13;;;13.20;99.90;;;;;;5043021;28;20439;-42
2023/06/05 06:27:57;;;;;;;7.65;5.03;;;13.20;99.90;;;;;;5042546;28;20028;-43
2023/06/05 06:30:22;;;;;;;10.25;6.45;;;13.30;99.90;;;;;;5043348;28;20377;-44
2023/06/05 06:32:48;;;;;;;6.28;4.78;;;13.30;99.90;;;;;;5041857;28;20040;-43
2023/06/05 06:35:13;;;;;;;5.18;4.63;;;13.30;99.90;;;;;;5042553;28;20068;-43
2023/06/05 06:37:42;;;;;;;5.75;4.63;;;13.30;99.90;;;;;;5042367;28;20029;-43
2023/06/05 06:40:09;;;;;;;7.03;5.30;;;13.40;99.90;;;;;;5042988;28;20028;-43
2023/06/05 06:42:35;;;;;;;7.03;5.50;;;13.40;99.90;;;;;;5042268;28;20057;-43
2023/06/05 06:45:01;;;;;;;8.85;6.20;;;13.40;99.90;;;;;;5042913;28;20488;-44
2023/06/05 06:47:27;;;;;;;8.13;5.70;;;13.50;99.90;;;;;;5041580;28;20036;-44
2023/06/05 06:49:53;;;;;;;7.00;5.18;;;13.50;99.90;;;;;;5042137;28;20022;-42
2023/06/05 06:52:20;;;;;;;6.60;4.32;;;13.50;99.90;;;;;;5040958;28;20559;-43
2023/06/05 06:54:46;;;;;;;7.30;5.03;;;13.50;99.90;;;;;;5044101;28;20380;-43
2023/06/05 06:57:11;;;;;;;7.05;5.25;;;13.50;99.90;;;;;;5045320;28;20488;-43
2023/06/05 06:59:40;;;;;;;5.20;4.68;;;13.60;99.90;;;;;;5043652;28;20116;-44
2023/06/05 07:02:19;;;;;;;6.15;4.35;;;13.60;99.90;;;;;;5040992;28;20048;-43
2023/06/05 07:04:46;;;;;;;5.70;4.32;;;13.70;99.90;;;;;;5046045;28;20070;-43
2023/06/05 07:07:14;;;;;;;6.47;4.10;;;13.80;99.90;;;;;;5047190;28;20029;-43
2023/06/05 07:09:43;;;;;;;6.03;4.13;;;13.80;99.90;;;;;;5045555;28;20082;-44
2023/06/05 07:12:13;;;;;;;5.75;4.32;;;13.90;99.90;;;;;;5047064;28;20033;-44
2023/06/05 07:14:44;;;;;;;4.25;3.80;;;14.00;99.90;;;;;;5045664;28;20128;-43
2023/06/05 07:17:10;;;;;;;7.30;4.20;;;14.00;99.90;;;;;;5041409;28;20055;-44
2023/06/05 07:19:36;;;;;;;6.40;4.38;;;14.10;99.90;;;;;;5041198;28;20665;-43
2023/06/05 07:22:04;;;;;;;4.88;3.75;;;14.10;99.90;;;;;;5046189;28;20037;-43
2023/06/05 07:24:31;;;;;;;5.78;4.68;;;14.20;99.90;;;;;;5045145;28;20331;-42
2023/06/05 07:27:00;;;;;;;5.22;4.32;;;14.30;99.90;;;;;;5046220;28;20457;-44
2023/06/05 07:29:25;;;;;;;5.35;3.60;;;14.30;99.90;;;;;;5044532;28;20499;-43
2023/06/05 07:31:53;;;;;;;5.65;4.80;;;14.40;99.90;;;;;;5046119;28;20029;-43
2023/06/05 07:34:19;;;;;;;8.60;4.30;;;14.40;99.90;;;;;;5045596;28;20116;-43
2023/06/05 07:36:46;;;;;;;6.13;4.68;;;14.40;99.90;;;;;;5045259;28;20028;-44
2023/06/05 07:39:13;;;;;;;5.18;4.20;;;14.50;99.90;;;;;;5046410;28;20029;-43
2023/06/05 07:41:39;;;;;;;5.65;4.45;;;14.60;99.90;;;;;;5045490;28;20024;-43
2023/06/05 07:44:07;;;;;;;5.63;4.28;;;14.60;99.90;;;;;;5045949;28;20108;-44
2023/06/05 07:46:32;;;;;;;6.75;4.35;;;14.70;99.90;;;;;;5045508;28;20020;-43
2023/06/05 07:48:58;;;;;;;4.82;4.20;;;14.70;99.90;;;;;;5045938;28;20469;-43
2023/06/05 07:51:26;;;;;;;6.22;3.92;;;14.80;99.90;;;;;;5043447;28;20060;-44
2023/06/05 07:53:52;;;;;;;6.13;4.70;;;14.90;99.90;;;;;;5044698;28;20557;-43
2023/06/05 07:56:17;;;;;;;4.28;3.33;;;14.90;99.90;;;;;;5045431;28;20021;-43
2023/06/05 07:58:43;;;;;;;5.05;3.53;;;14.90;99.90;;;;;;5044274;28;20644;-43
2023/06/05 08:01:15;;;;;;;4.18;3.78;;;15.00;99.90;;;;;;5045785;28;20021;-43
2023/06/05 08:03:43;;;;;;;5.80;4.20;;;15.10;99.90;;;;;;5045019;28;20032;-43
2023/06/05 08:06:09;;;;;;;4.10;3.70;;;15.20;99.90;;;;;;5045209;28;20028;-42
2023/06/05 08:08:35;;;;;;;5.43;4.20;;;15.20;99.90;;;;;;5045207;28;20063;-43
2023/06/05 08:11:00;;;;;;;6.03;4.18;;;15.30;99.90;;;;;;5045177;28;20614;-43
2023/06/05 08:13:26;;;;;;;6.15;3.80;;;15.30;99.90;;;;;;5031739;28;20033;-43
2023/06/05 08:15:52;;;;;;;7.38;4.88;;;15.40;99.90;;;;;;5040900;28;20564;-44
2023/06/05 08:18:17;;;;;;;5.85;4.63;;;15.40;99.90;;;;;;5045524;28;20031;-45
2023/06/05 08:20:43;;;;;;;4.68;3.80;;;15.50;99.90;;;;;;5044395;28;20634;-45
2023/06/05 08:23:08;;;;;;;6.10;3.70;;;15.60;99.90;;;;;;5042496;28;20112;-44
2023/06/05 08:25:35;;;;;;;5.15;3.53;;;15.60;99.90;;;;;;5041567;28;20025;-43
2023/06/05 08:28:00;;;;;;;5.63;3.35;;;15.70;99.90;;;;;;5045208;28;20531;-43
2023/06/05 08:30:26;;;;;;;5.22;4.28;;;15.70;99.90;;;;;;5043978;28;20029;-44
2023/06/05 08:32:51;;;;;;;6.18;4.35;;;15.80;99.90;;;;;;5038723;28;20060;-44
2023/06/05 08:35:17;;;;;;;7.85;3.92;;;15.90;99.90;;;;;;5039571;28;20144;-43
2023/06/05 08:37:42;;;;;;;4.15;3.22;;;16.00;99.90;;;;;;5043415;28;20059;-43
2023/06/05 08:40:12;;;;;;;5.85;3.63;;;16.00;99.90;;;;;;5044141;28;20500;-43
2023/06/05 08:42:38;;;;;;;5.80;3.30;;;16.10;99.90;;;;;;5044495;28;20033;-43
2023/06/05 08:45:08;;;;;;;5.45;3.83;;;16.20;99.90;;;;;;5045058;28;20151;-42
2023/06/05 08:47:36;;;;;;;5.25;4.32;;;16.30;99.90;;;;;;5043254;28;20021;-43
2023/06/05 08:50:04;;;;;;;5.22;4.22;;;16.30;99.90;;;;;;5044821;28;20492;-43
2023/06/05 08:52:33;;;;;;;5.03;3.33;;;16.30;99.90;;;;;;5043589;28;20087;-43
2023/06/05 08:54:59;;;;;;;6.32;3.72;;;16.40;99.90;;;;;;5050003;28;20040;-44
2023/06/05 08:57:26;;;;;;;6.38;4.03;;;16.50;99.90;;;;;;5053700;28;20017;-43
2023/06/05 08:59:52;;;;;;;5.63;3.58;;;16.50;99.90;;;;;;5044692;28;20083;-44
2023/06/05 09:02:18;;;;;;;5.18;3.80;;;16.60;99.90;;;;;;5043951;28;20096;-44
2023/06/05 09:04:43;;;;;;;5.75;3.30;;;16.70;99.90;;;;;;5044178;28;20025;-44
2023/06/05 09:07:11;;;;;;;4.18;3.08;;;16.70;99.90;;;;;;5044808;28;20037;-43
2023/06/05 09:09:40;;;;;;;6.50;3.30;;;16.80;99.90;;;;;;5031967;28;20021;-43
2023/06/05 09:12:07;;;;;;;6.35;3.70;;;16.90;99.90;;;;;;5043610;28;20444;-43
2023/06/05 09:14:33;;;;;;;5.60;3.63;;;17.00;99.90;;;;;;5044430;28;20111;-43
2023/06/05 09:17:00;;;;;;;5.07;3.50;;;17.00;99.90;;;;;;5043750;28;20116;-42
2023/06/05 09:19:36;;;;;;;8.60;4.07;;;17.10;99.90;;;;;;5043633;28;20495;-44
2023/06/05 09:22:01;;;;;;;5.90;4.40;;;17.20;99.90;;;;;;5043577;28;20918;-43
2023/06/05 09:24:29;;;;;;;5.63;3.90;;;17.20;99.90;;;;;;5044156;28;20055;-43
2023/06/05 09:26:59;;;;;;;6.85;4.28;;;17.30;99.90;;;;;;5044553;28;20424;-44
2023/06/05 09:29:38;;;;;;;6.22;4.00;;;17.40;99.90;;;;;;5043211;28;20524;-43
2023/06/05 09:32:08;;;;;;;5.43;4.30;;;17.40;99.90;;;;;;5045067;28;20032;-42
2023/06/05 09:34:39;;;;;;;6.32;4.35;;;17.50;99.90;;;;;;5043844;28;20100;-43
2023/06/05 09:37:09;;;;;;;7.60;4.38;;;17.50;99.90;;;;;;5044184;28;20075;-44
2023/06/05 09:39:46;;;;;;;5.88;4.22;;;17.60;99.90;;;;;;5043845;28;20021;-43
2023/06/05 09:42:11;;;;;;;5.00;3.60;;;17.70;99.90;;;;;;5044853;28;20238;-43
2023/06/05 09:44:37;;;;;;;4.85;3.70;;;17.70;99.90;;;;;;5042855;28;20021;-43
2023/06/05 09:47:09;;;;;;;5.80;3.42;;;17.80;99.90;;;;;;5044381;28;20021;-43
2023/06/05 09:49:40;;;;;;;4.77;3.83;;;17.80;99.90;;;;;;5044046;28;20021;-44
2023/06/05 09:52:10;;;;;;;3.83;3.50;;;17.90;99.90;;;;;;5043360;28;20021;-43
2023/06/05 09:54:37;;;;;;;4.40;3.28;;;17.90;99.90;;;;;;5043458;28;20229;-43
2023/06/05 09:57:05;;;;;;;4.60;3.65;;;18.00;99.90;;;;;;5043854;28;20099;-43
2023/06/05 09:59:33;;;;;;;4.55;3.53;;;18.00;99.90;;;;;;5043511;28;20040;-42
2023/06/05 10:02:05;;;;;;;6.00;3.92;;;18.10;99.90;;;;;;5044445;28;20028;-44
2023/06/05 10:04:44;;;;;;;6.63;3.33;;;18.20;99.90;;;;;;5042845;28;20033;-42
2023/06/05 10:07:10;;;;;;;5.38;3.92;;;18.30;99.90;;;;;;5044347;28;20043;-43
2023/06/05 10:09:36;;;;;;;5.93;3.58;;;18.30;99.90;;;;;;5043498;28;20406;-43
2023/06/05 10:12:04;;;;;;;3.85;3.10;;;18.40;99.90;;;;;;5043038;28;20036;-44
2023/06/05 10:14:29;;;;;;;5.03;4.05;;;18.50;99.90;;;;;;5042885;28;20055;-43
2023/06/05 10:16:57;;;;;;;6.85;3.80;;;18.60;99.90;;;;;;5043656;28;20742;-43
2023/06/05 10:19:24;;;;;;;6.43;4.03;;;18.60;99.90;;;;;;5042551;28;20025;-48
2023/06/05 10:21:50;;;;;;;5.97;3.60;;;18.70;99.90;;;;;;5044648;28;20477;-42
2023/06/05 10:24:23;;;;;;;3.30;2.53;;;18.70;99.90;;;;;;5048321;28;20035;-43
2023/06/05 10:27:08;;;;;;;5.45;3.40;;;18.80;99.90;;;;;;5044257;28;20028;-44
2023/06/05 10:30:02;;;;;;;4.13;3.35;;;18.80;99.90;;;;;;5047562;28;20104;-43
2023/06/05 10:32:34;;;;;;;3.97;3.05;;;19.00;99.90;;;;;;5036818;28;20041;-43
2023/06/05 10:35:27;;;;;;;4.45;2.70;;;19.00;99.90;;;;;;5047687;28;20037;-44
2023/06/05 10:38:06;;;;;;;4.03;2.42;;;19.10;99.90;;;;;;5039147;28;20028;-43
2023/06/05 10:40:33;;;;;;;3.30;2.85;;;19.10;99.90;;;;;;5046096;28;20415;-44
2023/06/05 10:43:23;;;;;;;6.10;3.90;;;19.10;99.80;;;;;;5046958;28;20037;-43
2023/06/05 10:45:49;;;;;;;4.60;3.17;;;19.20;99.50;;;;;;5047494;28;20045;-43
2023/06/05 10:48:16;;;;;;;3.40;3.05;;;19.30;99.50;;;;;;5046673;28;20129;-43
2023/06/05 10:50:42;;;;;;;3.38;2.97;;;19.30;99.40;;;;;;5046754;28;20033;-44
2023/06/05 10:53:45;;;;;;;4.63;3.22;;;19.30;99.30;;;;;;5047347;28;20091;-43
2023/06/05 10:56:49;;;;;;;5.97;3.53;;;19.40;99.30;;;;;;5047750;28;20048;-44
2023/06/05 10:59:15;;;;;;;4.78;3.45;;;19.40;99.00;;;;;;5047321;28;20063;-42
2023/06/05 11:01:41;;;;;;;4.22;3.08;;;19.50;98.80;;;;;;5045847;28;20025;-44
2023/06/05 11:04:07;;;;;;;4.97;3.67;;;19.60;98.70;;;;;;5047748;28;20116;-43
2023/06/05 11:06:37;;;;;;;3.80;3.00;;;19.60;98.60;;;;;;5046302;28;20434;-44
2023/06/05 11:09:14;;;;;;;4.07;3.25;;;19.60;98.50;;;;;;5046539;28;20040;-44
2023/06/05 11:11:59;;;;;;;4.40;2.85;;;19.70;98.40;;;;;;5046553;28;20538;-43
2023/06/05 11:14:47;;;;;;;2.50;2.28;;;19.70;98.30;;;;;;5046126;28;20036;-43
2023/06/05 11:17:32;;;;;;;5.97;2.97;;;19.80;98.30;;;;;;5046711;28;20029;-44
2023/06/05 11:20:06;;;;;;;4.40;2.35;;;19.80;98.10;;;;;;5046940;28;20423;-44
2023/06/05 11:22:32;;;;;;;4.78;2.60;;;19.80;98.10;;;;;;5045571;28;20296;-43
2023/06/05 11:25:16;;;;;;;3.85;2.65;;;19.90;98.00;;;;;;5046651;28;20141;-44
2023/06/05 11:27:57;;;;;;;3.35;2.45;;;19.90;97.80;;;;;;5046057;28;20041;-44
2023/06/05 11:30:26;;;;;;;2.95;2.50;;;20.00;97.70;;;;;;5045463;28;20027;-44
2023/06/05 11:32:54;;;;;;;3.28;2.40;;;20.00;97.70;;;;;;5046049;28;20065;-42
2023/06/05 11:35:25;;;;;;;5.20;3.13;;;20.10;97.70;;;;;;5045539;28;20142;-43
2023/06/05 11:38:22;;;;;;;4.45;3.03;;;20.20;97.30;;;;;;5046043;28;20024;-44
2023/06/05 11:40:48;;;;;;;4.00;3.00;;;20.20;97.00;;;;;;5046322;28;20402;-44
2023/06/05 11:43:15;;;;;;;4.53;3.20;;;20.30;96.90;;;;;;5045176;28;20025;-44
2023/06/05 11:45:48;;;;;;;3.65;2.45;;;20.40;96.70;;;;;;5045870;28;20145;-43
2023/06/05 11:48:14;;;;;;;3.38;2.85;;;20.30;96.70;;;;;;5045935;28;20029;-43
2023/06/05 11:51:03;;;;;;;2.60;2.33;;;20.40;96.70;;;;;;5044626;28;20032;-43
2023/06/05 11:53:31;;;;;;;3.00;2.60;;;20.40;96.60;;;;;;5045376;28;20045;-43
2023/06/05 11:58:30;;;;;;;2.92;2.63;;;20.50;96.20;;;;;;5044717;28;20033;-43
2023/06/05 12:01:17;;;;;;;3.70;2.80;;;20.50;95.90;;;;;;5045817;28;20111;-44
2023/06/05 12:03:45;;;;;;;3.38;2.30;;;20.60;95.40;;;;;;5045290;28;20029;-44
2023/06/05 12:06:14;;;;;;;2.78;2.50;;;20.60;95.30;;;;;;5046292;28;20025;-43
2023/06/05 12:08:40;;;;;;;3.72;2.28;;;20.70;95.20;;;;;;5045349;28;20071;-43
2023/06/05 12:11:23;;;;;;;3.60;2.33;;;20.70;95.20;;;;;;5045207;28;20028;-44
2023/06/05 12:13:50;;;;;;;3.40;2.58;;;20.70;95.10;;;;;;5045796;28;20354;-44
2023/06/05 12:16:17;;;;;;;4.07;2.35;;;20.80;94.90;;;;;;5045438;28;20068;-43
2023/06/05 12:18:48;;;;;;;3.53;2.90;;;20.80;94.70;;;;;;5044413;28;20036;-44
2023/06/05 12:21:25;;;;;;;2.60;2.40;;;20.90;94.60;;;;;;5046156;28;20029;-44
2023/06/05 12:23:51;;;;;;;2.92;2.17;;;20.90;94.50;;;;;;5045712;28;20556;-43
2023/06/05 12:26:17;;;;;;;2.58;2.38;;;20.90;94.50;;;;;;5045204;28;20033;-46
2023/06/05 12:28:45;;;;;;;2.95;2.25;;;21.00;94.20;;;;;;5045012;28;20028;-45
2023/06/05 12:31:11;;;;;;;3.53;2.15;;;21.00;94.10;;;;;;5045931;28;20078;-48
2023/06/05 12:33:47;;;;;;;3.40;2.30;;;21.10;94.00;;;;;;5044003;28;20480;-43
2023/06/05 12:36:13;;;;;;;2.70;2.20;;;21.10;93.80;;;;;;5042821;28;20122;-44
2023/06/05 12:38:41;;;;;;;2.58;2.13;;;21.10;93.90;;;;;;5045135;28;20100;-43
2023/06/05 12:41:10;;;;;;;3.72;2.10;;;21.20;93.60;;;;;;5043731;28;20028;-44
2023/06/05 12:43:36;;;;;;;3.25;2.20;;;21.20;93.10;;;;;;5045286;28;20028;-44
2023/06/05 12:46:02;;;;;;;3.13;2.15;;;21.20;93.00;;;;;;5044478;28;20021;-43
2023/06/05 12:48:28;;;;;;;3.53;2.28;;;21.30;92.90;;;;;;5045041;28;20694;-44
2023/06/05 12:50:56;;;;;;;3.17;2.40;;;21.30;92.70;;;;;;5045007;28;20029;-44
2023/06/05 12:53:25;;;;;;;2.90;2.20;;;21.30;92.10;;;;;;5044237;28;20044;-44
2023/06/05 12:55:50;;;;;;;3.22;2.13;;;21.40;91.90;;;;;;5045095;28;20032;-44